Flight Track Log - Related Links

Times and Time Zones

All times are in EDT time to prevent confusion due to time zone crossing. See the N373LD flight status page for this flight to view local times or setup timezone preferences in your user account.

Time Position Orientation Groundspeed Altitude Reporting Facility
EDT Latitude Longitude Course Direction KTS MPH feet Rate Location/Type
Fri 03:55:35 PM 37.9381 -100.7225 North 99 114 3,300  Level Kansas City Center
Fri 03:56:39 PM 37.9675 -100.7219 North 112 129 4,400 1,113 Climbing Kansas City Center
Fri 03:57:39 PM 38.0111 -100.7283 353° North 129 148 5,600 1,210 Climbing Kansas City Center
Fri 03:58:43 PM 38.0469 -100.7514 333° Northwest 144 166 6,900 1,323 Climbing Kansas City Center
Fri 03:59:46 PM 38.0883 -100.7736 337° Northwest 144 166 8,400 1,392 Climbing Kansas City Center
Fri 04:00:48 PM 38.1244 -100.7922 338° Northwest 144 166 9,800 1,366 Climbing Kansas City Center
Fri 04:01:49 PM 38.1681 -100.8153 337° Northwest 145 167 11,200 1,328 Climbing Kansas City Center
Fri 04:02:50 PM 38.2056 -100.8353 337° Northwest 150 173 12,500 1,279 Climbing Kansas City Center
Fri 04:03:51 PM 38.2500 -100.8594 337° Northwest 151 174 13,800 1,152 Climbing Kansas City Center
Fri 04:04:55 PM 38.2892 -100.8800 338° Northwest 156 180 14,900 1,152 Climbing Kansas City Center
Fri 04:05:56 PM 38.3364 -100.9056 337° Northwest 158 182 16,200 1,180 Climbing Kansas City Center
Fri 04:06:57 PM 38.3769 -100.9272 337° Northwest 161 185 17,300 960 Climbing Kansas City Center
Fri 04:08:01 PM 38.4239 -100.9531 337° Northwest 161 185 18,200 919 Climbing Kansas City Center
Fri 04:09:01 PM 38.4653 -100.9753 337° Northwest 163 188 19,200 927 Climbing Kansas City Center
Fri 04:10:04 PM 38.5072 -100.9972 338° Northwest 166 191 20,100 866 Climbing Kansas City Center
Fri 04:10:38 PM 38.5278 -101.0067 340° North 167 192 20,600 1,125 Climbing Denver Center
Fri 04:11:40 PM 38.5828 -101.0378 336° Northwest 169 194 21,900 1,065 Climbing Denver Center
Fri 04:12:42 PM 38.6250 -101.0611 337° Northwest 170 196 22,800 878 Climbing Denver Center
Fri 04:13:43 PM 38.6686 -101.0833 338° Northwest 174 200 23,700 976 Climbing Denver Center
Fri 04:14:45 PM 38.7197 -101.1117 337° Northwest 178 205 24,800 919 Climbing Denver Center
Fri 04:15:47 PM 38.7636 -101.1372 336° Northwest 178 205 25,600 871 Climbing Denver Center
Fri 04:16:49 PM 38.8150 -101.1636 338° Northwest 178 205 26,600 878 Climbing Denver Center
Fri 04:17:50 PM 38.8594 -101.1886 336° Northwest 180 207 27,400 683 Climbing Denver Center
Fri 04:18:52 PM 38.9128 -101.2164 338° Northwest 184 212 28,000 290 Climbing Denver Center
Fri 04:19:54 PM 38.9633 -101.2456 336° Northwest 204 235 28,000  Level Denver Center
Fri 04:20:56 PM 39.0283 -101.2808 337° Northwest 226 260 28,000  Level Denver Center
Fri 04:21:57 PM 39.0894 -101.3136 337° Northwest 231 266 28,000  Level Denver Center
Fri 04:22:59 PM 39.1450 -101.3453 336° Northwest 230 265 28,000  Level Denver Center
Fri 04:24:01 PM 39.2011 -101.3747 338° Northwest 230 265 28,000  Level Denver Center
Fri 04:25:03 PM 39.2653 -101.4114 336° Northwest 227 261 28,000  Level Denver Center
Fri 04:26:04 PM 39.3203 -101.4408 338° Northwest 226 260 28,000  Level Denver Center
Fri 04:27:06 PM 39.3842 -101.4761 337° Northwest 225 259 28,000  Level Denver Center
Fri 04:28:08 PM 39.4386 -101.5067 337° Northwest 224 258 28,000  Level Denver Center
Fri 04:29:10 PM 39.5025 -101.5425 337° Northwest 223 257 28,000  Level Denver Center
Fri 04:30:12 PM 39.5569 -101.5722 337° Northwest 223 257 28,000  Level Denver Center
Fri 04:31:14 PM 39.6206 -101.6083 336° Northwest 223 257 28,000  Level Denver Center
Fri 04:32:15 PM 39.6753 -101.6383 337° Northwest 222 255 28,000  Level Denver Center
Fri 04:33:17 PM 39.7303 -101.6697 336° Northwest 223 257 28,000  Level Denver Center
Fri 04:34:19 PM 39.7933 -101.7050 337° Northwest 223 257 28,000  Level Denver Center
Fri 04:35:21 PM 39.8492 -101.7364 337° Northwest 223 257 28,000  Level Denver Center
Fri 04:36:23 PM 39.9144 -101.7722 337° Northwest 226 260 28,000  Level Denver Center
Fri 04:37:25 PM 39.9703 -101.8044 336° Northwest 227 261 28,000  Level Denver Center
Fri 04:38:26 PM 40.0358 -101.8414 337° Northwest 228 262 28,000  Level Denver Center
Fri 04:39:28 PM 40.0906 -101.8728 336° Northwest 228 262 28,000  Level Denver Center
Fri 04:40:30 PM 40.1564 -101.9086 337° Northwest 228 262 28,000  Level Denver Center
Fri 04:41:32 PM 40.2128 -101.9422 336° Northwest 228 262 28,000  Level Denver Center
Fri 04:42:34 PM 40.2686 -101.9733 337° Northwest 229 264 28,000  Level Denver Center
Fri 04:43:36 PM 40.3339 -102.0100 337° Northwest 228 262 28,000  Level Denver Center
Fri 04:44:38 PM 40.3897 -102.0422 336° Northwest 228 262 28,000  Level Denver Center
Fri 04:45:40 PM 40.4556 -102.0789 337° Northwest 229 264 28,000  Level Denver Center
Fri 04:46:42 PM 40.5111 -102.1125 335° Northwest 229 264 28,000  Level Denver Center
Fri 04:47:43 PM 40.5586 -102.1386 337° Northwest 229 264 28,000  Level Denver Center
Fri 04:48:45 PM 40.6336 -102.1819 336° Northwest 229 264 28,000  Level Denver Center
Fri 04:49:47 PM 40.6900 -102.2144 336° Northwest 230 265 28,000  Level Denver Center
Fri 04:50:49 PM 40.7569 -102.2531 336° Northwest 231 266 28,000  Level Denver Center
Fri 04:51:51 PM 40.8128 -102.2861 336° Northwest 231 266 28,000  Level Denver Center
Fri 04:52:53 PM 40.8803 -102.3250 336° Northwest 233 268 28,000  Level Denver Center
Fri 04:53:55 PM 40.9389 -102.3586 337° Northwest 236 272 28,000  Level Denver Center
Fri 04:54:57 PM 41.0053 -102.3975 336° Northwest 236 272 28,000  Level Denver Center
Fri 04:55:59 PM 41.0636 -102.4319 336° Northwest 238 274 28,000  Level Denver Center
Fri 04:57:01 PM 41.1306 -102.4714 336° Northwest 238 274 28,000  Level Denver Center
Fri 04:58:03 PM 41.1886 -102.5047 337° Northwest 238 274 28,000  Level Denver Center
Fri 04:59:05 PM 41.2575 -102.5450 336° Northwest 238 274 28,000  Level Denver Center
Fri 05:00:07 PM 41.3150 -102.5789 336° Northwest 238 274 28,000  Level Denver Center
Fri 05:01:09 PM 41.3783 -102.6167 336° Northwest 236 272 28,000  Level Denver Center
Fri 05:02:11 PM 41.4367 -102.6506 336° Northwest 237 273 28,000  Level Denver Center
Fri 05:03:12 PM 41.5044 -102.6908 336° Northwest 238 274 28,000  Level Denver Center
Fri 05:04:14 PM 41.5636 -102.7244 337° Northwest 238 274 28,000  Level Denver Center
Fri 05:05:16 PM 41.6311 -102.7656 336° Northwest 238 274 28,000  Level Denver Center
Fri 05:06:18 PM 41.6883 -102.8011 335° Northwest 238 274 28,000  Level Denver Center
Fri 05:07:20 PM 41.7542 -102.8397 336° Northwest 233 268 28,000  Level Denver Center
Fri 05:08:22 PM 41.8122 -102.8744 336° Northwest 235 270 28,000  Level Denver Center
Fri 05:09:24 PM 41.8675 -102.9078 336° Northwest 231 266 28,000  Level Denver Center
Fri 05:10:26 PM 41.9356 -102.9486 336° Northwest 237 273 28,000  Level Denver Center
Fri 05:11:28 PM 41.9933 -102.9828 336° Northwest 237 273 28,000  Level Denver Center
Fri 05:12:30 PM 42.0603 -103.0225 336° Northwest 237 273 28,000  Level Denver Center
Fri 05:13:32 PM 42.1194 -103.0581 336° Northwest 241 277 28,000  Level Denver Center
Fri 05:14:34 PM 42.1869 -103.1006 335° Northwest 241 277 28,000  Level Denver Center
Fri 05:15:36 PM 42.2461 -103.1372 335° Northwest 242 278 28,000  Level Denver Center
Fri 05:16:38 PM 42.3147 -103.1769 337° Northwest 242 278 28,000  Level Denver Center
Fri 05:17:40 PM 42.3736 -103.2139 335° Northwest 242 278 28,000  Level Denver Center
Fri 05:18:42 PM 42.4419 -103.2556 336° Northwest 242 278 28,000  Level Denver Center
Fri 05:19:44 PM 42.5008 -103.2919 336° Northwest 242 278 28,000  Level Denver Center
Fri 05:20:47 PM 42.5689 -103.3339 336° Northwest 242 278 28,000  Level Denver Center
Fri 05:21:49 PM 42.6278 -103.3706 335° Northwest 243 280 28,000  Level Denver Center
Fri 05:22:51 PM 42.6961 -103.4111 336° Northwest 241 277 28,000  Level Denver Center
Fri 05:23:53 PM 42.7544 -103.4481 335° Northwest 241 277 28,000  Level Denver Center
Fri 05:24:55 PM 42.8231 -103.4892 336° Northwest 241 277 28,000  Level Denver Center
Fri 05:25:57 PM 42.8817 -103.5269 335° Northwest 243 280 28,000  Level Denver Center
Fri 05:26:59 PM 42.9500 -103.5681 336° Northwest 242 278 28,000  Level Denver Center
Fri 05:28:01 PM 43.0081 -103.6050 335° Northwest 242 278 28,000  Level Denver Center
Fri 05:29:03 PM 43.0764 -103.6475 336° Northwest 242 278 28,000  Level Denver Center
Fri 05:30:05 PM 43.1356 -103.6856 335° Northwest 242 278 28,000  Level Denver Center
Fri 05:31:07 PM 43.2036 -103.7286 335° Northwest 242 278 28,000  Level Denver Center
Fri 05:32:09 PM 43.2628 -103.7636 337° Northwest 242 278 28,000  Level Denver Center
Fri 05:33:11 PM 43.3206 -103.8031 334° Northwest 242 278 28,000  Level Denver Center
Fri 05:34:13 PM 43.3883 -103.8464 335° Northwest 242 278 28,000  Level Denver Center
Fri 05:35:15 PM 43.4450 -103.8833 335° Northwest 241 277 28,000  Level Denver Center
Fri 05:36:17 PM 43.5150 -103.9267 336° Northwest 241 277 28,000  Level Denver Center
Fri 05:37:19 PM 43.5747 -103.9653 335° Northwest 244 281 28,000  Level Denver Center
Fri 05:38:22 PM 43.6456 -104.0106 335° Northwest 247 284 28,000  Level Denver Center
Fri 05:39:24 PM 43.7050 -104.0481 335° Northwest 247 284 28,000  Level Denver Center
Fri 05:40:26 PM 43.7744 -104.0942 334° Northwest 247 284 28,000  Level Denver Center
Fri 05:41:28 PM 43.8333 -104.1308 336° Northwest 247 284 28,000  Level Denver Center
Fri 05:42:30 PM 43.9047 -104.1778 335° Northwest 249 287 28,000  Level Denver Center
Fri 05:43:32 PM 43.9636 -104.2139 336° Northwest 247 284 28,000  Level Denver Center
Fri 05:44:34 PM 44.0333 -104.2592 335° Northwest 247 284 28,000  Level Denver Center
Fri 05:45:36 PM 44.0936 -104.2981 335° Northwest 247 284 28,000  Level Denver Center
Fri 05:46:38 PM 44.1631 -104.3417 336° Northwest 247 284 28,000  Level Denver Center
Fri 05:47:40 PM 44.2228 -104.3828 334° Northwest 248 285 28,000  Level Denver Center
Fri 05:48:42 PM 44.2922 -104.4297 334° Northwest 248 285 28,000  Level Denver Center
Fri 05:49:44 PM 44.3522 -104.4675 336° Northwest 248 285 28,000  Level Denver Center
Fri 05:50:46 PM 44.4211 -104.5125 335° Northwest 248 285 28,000  Level Denver Center
Fri 05:51:48 PM 44.4814 -104.5528 335° Northwest 247 284 28,000  Level Denver Center
Fri 05:52:50 PM 44.5411 -104.5897 336° Northwest 247 284 28,000  Level Denver Center
Fri 05:53:52 PM 44.6106 -104.6361 335° Northwest 247 284 28,000  Level Denver Center
Fri 05:54:54 PM 44.6703 -104.6758 335° Northwest 247 284 28,000  Level Denver Center
Fri 05:55:56 PM 44.7400 -104.7211 335° Northwest 247 284 28,000  Level Denver Center
Fri 05:56:58 PM 44.8053 -104.7669 334° Northwest 248 285 28,000  Level Denver Center
Fri 05:58:00 PM 44.8689 -104.8094 335° Northwest 248 285 28,000  Level Denver Center
Fri 05:59:02 PM 44.9306 -104.8503 335° Northwest 248 285 28,000  Level Denver Center
Fri 06:00:04 PM 44.9925 -104.8925 334° Northwest 247 284 28,000 -48 Level Denver Center
Fri 06:01:06 PM 45.0561 -104.9347 335° Northwest 249 287 27,900 -339 Descending Denver Center
Fri 06:02:08 PM 45.1339 -104.9881 334° Northwest 255 293 27,300 -432 Descending Denver Center
Fri 06:03:11 PM 45.2003 -105.0322 335° Northwest 260 299 27,000 -137 Descending Denver Center
Fri 06:04:19 PM 45.2647 -105.0747 335° Northwest 259 298 27,000  Level Salt Lake Center
Fri 06:05:21 PM 45.3397 -105.1261 334° Northwest 251 289 27,000  Level Salt Lake Center
Fri 06:06:23 PM 45.4011 -105.1686 334° Northwest 251 289 27,000  Level Salt Lake Center
Fri 06:07:24 PM 45.4625 -105.2094 335° Northwest 248 285 27,000  Level Salt Lake Center
Fri 06:08:26 PM 45.5236 -105.2519 334° Northwest 248 285 27,000  Level Salt Lake Center
Fri 06:09:28 PM 45.5842 -105.2947 334° Northwest 247 284 27,000 -98 Level Salt Lake Center
Fri 06:10:29 PM 45.6478 -105.3381 335° Northwest 248 285 26,800 -976 Descending Salt Lake Center
Fri 06:11:31 PM 45.7081 -105.3781 335° Northwest 247 284 25,000 -1,951 Descending Salt Lake Center
Fri 06:12:32 PM 45.7800 -105.4281 334° Northwest 240 276 22,800 -1,951 Descending Salt Lake Center
Fri 06:13:34 PM 45.8397 -105.4686 335° Northwest 240 276 21,000 -1,742 Descending Salt Lake Center
Fri 06:14:36 PM 45.8958 -105.5092 333° Northwest 234 269 19,200 -1,756 Descending Salt Lake Center
Fri 06:15:37 PM 45.9519 -105.5472 335° Northwest 230 265 17,400 -1,770 Descending Salt Lake Center

Login

Don't have an account? Register now (free) for customized features, flight alerts, and more!